sensor_id;sensor_type;location;lat;lon;timestamp;P1;durP1;ratioP1;P2;durP2;ratioP2
16450;SDS011;12243;42.708;23.310;2023-04-29T00:01:35;10.67;;;6.10;;
16450;SDS011;12243;42.708;23.310;2023-04-29T00:04:01;10.13;;;6.20;;
16450;SDS011;12243;42.708;23.310;2023-04-29T00:06:28;10.43;;;5.97;;
16450;SDS011;12243;42.708;23.310;2023-04-29T00:08:55;9.50;;;6.30;;
16450;SDS011;12243;42.708;23.310;2023-04-29T00:11:22;7.93;;;6.20;;
16450;SDS011;12243;42.708;23.310;2023-04-29T00:13:49;9.20;;;5.93;;
16450;SDS011;12243;42.708;23.310;2023-04-29T00:16:16;11.67;;;5.93;;
16450;SDS011;12243;42.708;23.310;2023-04-29T00:18:44;8.90;;;6.10;;
16450;SDS011;12243;42.708;23.310;2023-04-29T00:21:11;13.33;;;6.23;;
16450;SDS011;12243;42.708;23.310;2023-04-29T00:23:38;6.37;;;5.73;;
16450;SDS011;12243;42.708;23.310;2023-04-29T00:26:05;8.77;;;6.50;;
16450;SDS011;12243;42.708;23.310;2023-04-29T00:28:32;8.53;;;6.50;;
16450;SDS011;12243;42.708;23.310;2023-04-29T00:30:59;10.23;;;6.43;;
16450;SDS011;12243;42.708;23.310;2023-04-29T00:33:26;7.07;;;5.87;;
16450;SDS011;12243;42.708;23.310;2023-04-29T00:35:54;10.33;;;6.53;;
16450;SDS011;12243;42.708;23.310;2023-04-29T00:38:21;11.60;;;6.97;;
16450;SDS011;12243;42.708;23.310;2023-04-29T00:40:48;10.53;;;6.50;;
16450;SDS011;12243;42.708;23.310;2023-04-29T00:43:15;11.83;;;7.23;;
16450;SDS011;12243;42.708;23.310;2023-04-29T00:45:42;9.63;;;6.47;;
16450;SDS011;12243;42.708;23.310;2023-04-29T00:48:10;9.63;;;7.13;;
16450;SDS011;12243;42.708;23.310;2023-04-29T00:50:37;7.70;;;6.70;;
16450;SDS011;12243;42.708;23.310;2023-04-29T00:53:05;10.30;;;6.40;;
16450;SDS011;12243;42.708;23.310;2023-04-29T00:55:32;11.00;;;6.37;;
16450;SDS011;12243;42.708;23.310;2023-04-29T00:58:00;11.60;;;8.23;;
16450;SDS011;12243;42.708;23.310;2023-04-29T01:00:28;18.20;;;10.23;;
16450;SDS011;12243;42.708;23.310;2023-04-29T01:02:56;16.47;;;8.63;;
16450;SDS011;12243;42.708;23.310;2023-04-29T01:05:24;12.40;;;7.20;;
16450;SDS011;12243;42.708;23.310;2023-04-29T01:07:53;11.20;;;6.67;;
16450;SDS011;12243;42.708;23.310;2023-04-29T01:10:30;14.97;;;7.80;;
16450;SDS011;12243;42.708;23.310;2023-04-29T01:13:06;11.87;;;6.90;;
16450;SDS011;12243;42.708;23.310;2023-04-29T01:15:38;11.87;;;6.60;;
16450;SDS011;12243;42.708;23.310;2023-04-29T01:18:14;10.47;;;7.03;;
16450;SDS011;12243;42.708;23.310;2023-04-29T01:20:48;11.37;;;7.10;;
16450;SDS011;12243;42.708;23.310;2023-04-29T01:23:15;9.90;;;6.60;;
16450;SDS011;12243;42.708;23.310;2023-04-29T01:25:43;11.27;;;6.93;;
16450;SDS011;12243;42.708;23.310;2023-04-29T01:28:18;11.33;;;6.87;;
16450;SDS011;12243;42.708;23.310;2023-04-29T01:30:55;8.37;;;6.10;;
16450;SDS011;12243;42.708;23.310;2023-04-29T01:33:30;11.27;;;6.17;;
16450;SDS011;12243;42.708;23.310;2023-04-29T01:36:07;8.03;;;6.43;;
16450;SDS011;12243;42.708;23.310;2023-04-29T01:38:44;9.93;;;6.73;;
16450;SDS011;12243;42.708;23.310;2023-04-29T01:41:21;9.80;;;6.90;;
16450;SDS011;12243;42.708;23.310;2023-04-29T01:43:59;13.47;;;6.10;;
16450;SDS011;12243;42.708;23.310;2023-04-29T01:46:29;9.30;;;5.63;;
16450;SDS011;12243;42.708;23.310;2023-04-29T01:48:57;10.27;;;6.07;;
16450;SDS011;12243;42.708;23.310;2023-04-29T01:51:24;9.83;;;6.30;;
16450;SDS011;12243;42.708;23.310;2023-04-29T01:53:52;10.33;;;6.00;;
16450;SDS011;12243;42.708;23.310;2023-04-29T01:56:21;9.10;;;6.10;;
16450;SDS011;12243;42.708;23.310;2023-04-29T01:59:06;9.90;;;5.97;;
16450;SDS011;12243;42.708;23.310;2023-04-29T02:01:33;8.83;;;6.20;;
16450;SDS011;12243;42.708;23.310;2023-04-29T02:04:03;10.20;;;6.67;;
16450;SDS011;12243;42.708;23.310;2023-04-29T02:06:31;9.40;;;5.93;;
16450;SDS011;12243;42.708;23.310;2023-04-29T02:09:01;9.20;;;5.80;;
16450;SDS011;12243;42.708;23.310;2023-04-29T02:11:31;10.60;;;6.07;;
16450;SDS011;12243;42.708;23.310;2023-04-29T02:13:58;7.90;;;5.97;;
16450;SDS011;12243;42.708;23.310;2023-04-29T02:16:26;7.70;;;5.83;;
16450;SDS011;12243;42.708;23.310;2023-04-29T02:19:02;9.47;;;5.50;;
16450;SDS011;12243;42.708;23.310;2023-04-29T02:21:29;11.00;;;5.50;;
16450;SDS011;12243;42.708;23.310;2023-04-29T02:23:59;8.57;;;5.23;;
16450;SDS011;12243;42.708;23.310;2023-04-29T02:26:26;6.20;;;4.93;;
16450;SDS011;12243;42.708;23.310;2023-04-29T02:28:56;8.03;;;5.20;;
16450;SDS011;12243;42.708;23.310;2023-04-29T02:31:23;5.40;;;4.70;;
16450;SDS011;12243;42.708;23.310;2023-04-29T02:33:50;8.80;;;5.17;;
16450;SDS011;12243;42.708;23.310;2023-04-29T02:36:16;9.73;;;5.20;;
16450;SDS011;12243;42.708;23.310;2023-04-29T02:38:44;6.47;;;5.30;;
16450;SDS011;12243;42.708;23.310;2023-04-29T02:41:14;6.80;;;5.10;;
16450;SDS011;12243;42.708;23.310;2023-04-29T02:43:42;8.97;;;5.80;;
16450;SDS011;12243;42.708;23.310;2023-04-29T02:46:10;9.07;;;5.13;;
16450;SDS011;12243;42.708;23.310;2023-04-29T02:48:37;7.67;;;5.30;;
16450;SDS011;12243;42.708;23.310;2023-04-29T02:51:04;6.13;;;5.03;;
16450;SDS011;12243;42.708;23.310;2023-04-29T02:53:31;8.90;;;5.17;;
16450;SDS011;12243;42.708;23.310;2023-04-29T02:55:58;7.63;;;5.57;;
16450;SDS011;12243;42.708;23.310;2023-04-29T02:58:25;6.43;;;5.33;;
16450;SDS011;12243;42.708;23.310;2023-04-29T03:00:52;8.53;;;5.77;;
16450;SDS011;12243;42.708;23.310;2023-04-29T03:03:20;8.80;;;5.70;;
16450;SDS011;12243;42.708;23.310;2023-04-29T03:05:47;13.30;;;5.73;;
16450;SDS011;12243;42.708;23.310;2023-04-29T03:08:14;9.07;;;5.90;;
16450;SDS011;12243;42.708;23.310;2023-04-29T03:10:41;7.80;;;5.93;;
16450;SDS011;12243;42.708;23.310;2023-04-29T03:13:08;6.97;;;5.10;;
16450;SDS011;12243;42.708;23.310;2023-04-29T03:15:36;8.93;;;5.47;;
16450;SDS011;12243;42.708;23.310;2023-04-29T03:18:04;9.83;;;7.30;;
16450;SDS011;12243;42.708;23.310;2023-04-29T03:20:34;6.63;;;5.97;;
16450;SDS011;12243;42.708;23.310;2023-04-29T03:23:02;8.37;;;7.00;;
16450;SDS011;12243;42.708;23.310;2023-04-29T03:25:29;9.17;;;6.07;;
16450;SDS011;12243;42.708;23.310;2023-04-29T03:27:56;10.27;;;6.10;;
16450;SDS011;12243;42.708;23.310;2023-04-29T03:30:23;8.13;;;5.60;;
16450;SDS011;12243;42.708;23.310;2023-04-29T03:32:54;9.23;;;5.60;;
16450;SDS011;12243;42.708;23.310;2023-04-29T03:35:21;10.70;;;5.60;;
16450;SDS011;12243;42.708;23.310;2023-04-29T03:38:18;7.70;;;6.50;;
16450;SDS011;12243;42.708;23.310;2023-04-29T03:40:46;9.40;;;6.27;;
16450;SDS011;12243;42.708;23.310;2023-04-29T03:43:15;10.03;;;6.00;;
16450;SDS011;12243;42.708;23.310;2023-04-29T03:45:42;9.13;;;6.50;;
16450;SDS011;12243;42.708;23.310;2023-04-29T03:48:11;6.87;;;5.60;;
16450;SDS011;12243;42.708;23.310;2023-04-29T03:50:38;6.67;;;5.33;;
16450;SDS011;12243;42.708;23.310;2023-04-29T03:53:05;6.83;;;5.13;;
16450;SDS011;12243;42.708;23.310;2023-04-29T03:55:34;8.83;;;5.30;;
16450;SDS011;12243;42.708;23.310;2023-04-29T03:58:01;6.07;;;5.03;;
16450;SDS011;12243;42.708;23.310;2023-04-29T04:00:28;7.80;;;5.13;;
16450;SDS011;12243;42.708;23.310;2023-04-29T04:02:57;9.53;;;5.70;;
16450;SDS011;12243;42.708;23.310;2023-04-29T04:05:24;9.60;;;5.80;;
16450;SDS011;12243;42.708;23.310;2023-04-29T04:07:57;7.50;;;6.00;;
16450;SDS011;12243;42.708;23.310;2023-04-29T04:10:43;8.23;;;6.30;;
16450;SDS011;12243;42.708;23.310;2023-04-29T04:13:22;8.00;;;6.57;;
16450;SDS011;12243;42.708;23.310;2023-04-29T04:15:49;7.27;;;5.93;;
16450;SDS011;12243;42.708;23.310;2023-04-29T04:18:16;9.90;;;5.90;;
16450;SDS011;12243;42.708;23.310;2023-04-29T04:20:43;8.50;;;6.00;;
16450;SDS011;12243;42.708;23.310;2023-04-29T04:23:11;7.70;;;5.67;;
16450;SDS011;12243;42.708;23.310;2023-04-29T04:25:44;8.50;;;5.67;;
16450;SDS011;12243;42.708;23.310;2023-04-29T04:28:30;8.70;;;6.10;;
16450;SDS011;12243;42.708;23.310;2023-04-29T04:31:04;8.87;;;5.80;;
16450;SDS011;12243;42.708;23.310;2023-04-29T04:33:32;11.50;;;5.67;;
16450;SDS011;12243;42.708;23.310;2023-04-29T04:36:00;7.80;;;4.90;;
16450;SDS011;12243;42.708;23.310;2023-04-29T04:38:27;8.20;;;5.47;;
16450;SDS011;12243;42.708;23.310;2023-04-29T04:40:56;7.07;;;5.40;;
16450;SDS011;12243;42.708;23.310;2023-04-29T04:43:43;7.73;;;5.70;;
16450;SDS011;12243;42.708;23.310;2023-04-29T04:46:33;6.53;;;5.67;;
16450;SDS011;12243;42.708;23.310;2023-04-29T04:49:24;6.97;;;5.73;;
16450;SDS011;12243;42.708;23.310;2023-04-29T04:51:51;16.97;;;6.63;;
16450;SDS011;12243;42.708;23.310;2023-04-29T04:54:18;9.27;;;6.57;;
16450;SDS011;12243;42.708;23.310;2023-04-29T04:56:51;12.90;;;7.47;;
16450;SDS011;12243;42.708;23.310;2023-04-29T04:59:18;10.20;;;6.40;;
16450;SDS011;12243;42.708;23.310;2023-04-29T05:01:45;12.97;;;6.63;;
16450;SDS011;12243;42.708;23.310;2023-04-29T05:04:13;7.77;;;6.97;;
16450;SDS011;12243;42.708;23.310;2023-04-29T05:06:40;13.33;;;7.47;;
16450;SDS011;12243;42.708;23.310;2023-04-29T05:09:07;12.23;;;8.17;;
16450;SDS011;12243;42.708;23.310;2023-04-29T05:11:35;12.37;;;7.90;;
16450;SDS011;12243;42.708;23.310;2023-04-29T05:14:09;9.97;;;8.00;;
16450;SDS011;12243;42.708;23.310;2023-04-29T05:16:36;14.83;;;8.83;;
16450;SDS011;12243;42.708;23.310;2023-04-29T05:19:02;10.43;;;8.30;;
16450;SDS011;12243;42.708;23.310;2023-04-29T05:21:34;10.53;;;8.57;;
16450;SDS011;12243;42.708;23.310;2023-04-29T05:24:00;12.67;;;9.77;;
16450;SDS011;12243;42.708;23.310;2023-04-29T05:26:28;17.50;;;9.60;;
16450;SDS011;12243;42.708;23.310;2023-04-29T05:28:58;15.07;;;9.40;;
16450;SDS011;12243;42.708;23.310;2023-04-29T05:31:28;14.70;;;10.00;;
16450;SDS011;12243;42.708;23.310;2023-04-29T05:33:59;16.97;;;9.23;;
16450;SDS011;12243;42.708;23.310;2023-04-29T05:36:26;15.67;;;11.27;;
16450;SDS011;12243;42.708;23.310;2023-04-29T05:38:55;14.87;;;10.00;;
16450;SDS011;12243;42.708;23.310;2023-04-29T05:41:22;14.97;;;8.03;;
16450;SDS011;12243;42.708;23.310;2023-04-29T05:44:08;12.53;;;7.83;;
16450;SDS011;12243;42.708;23.310;2023-04-29T05:46:37;16.80;;;7.63;;
16450;SDS011;12243;42.708;23.310;2023-04-29T05:49:04;15.27;;;8.00;;
16450;SDS011;12243;42.708;23.310;2023-04-29T05:51:31;12.80;;;8.87;;
16450;SDS011;12243;42.708;23.310;2023-04-29T05:53:58;21.53;;;8.07;;
16450;SDS011;12243;42.708;23.310;2023-04-29T05:56:25;13.23;;;7.47;;
16450;SDS011;12243;42.708;23.310;2023-04-29T05:58:54;15.13;;;7.17;;
16450;SDS011;12243;42.708;23.310;2023-04-29T06:01:21;9.60;;;6.50;;
16450;SDS011;12243;42.708;23.310;2023-04-29T06:03:49;10.73;;;6.57;;
16450;SDS011;12243;42.708;23.310;2023-04-29T06:06:36;13.43;;;6.57;;
16450;SDS011;12243;42.708;23.310;2023-04-29T06:09:26;13.60;;;6.37;;
16450;SDS011;12243;42.708;23.310;2023-04-29T06:11:58;12.13;;;6.50;;
16450;SDS011;12243;42.708;23.310;2023-04-29T06:14:25;9.70;;;6.17;;
16450;SDS011;12243;42.708;23.310;2023-04-29T06:16:52;10.70;;;6.17;;
16450;SDS011;12243;42.708;23.310;2023-04-29T06:19:21;11.77;;;5.77;;
16450;SDS011;12243;42.708;23.310;2023-04-29T06:21:50;11.03;;;5.80;;
16450;SDS011;12243;42.708;23.310;2023-04-29T06:24:17;7.10;;;6.40;;
16450;SDS011;12243;42.708;23.310;2023-04-29T06:26:44;12.43;;;6.23;;
16450;SDS011;12243;42.708;23.310;2023-04-29T06:29:11;12.80;;;6.93;;
16450;SDS011;12243;42.708;23.310;2023-04-29T06:31:39;10.83;;;6.17;;
16450;SDS011;12243;42.708;23.310;2023-04-29T06:34:07;11.17;;;5.67;;
16450;SDS011;12243;42.708;23.310;2023-04-29T06:36:43;7.70;;;5.47;;
16450;SDS011;12243;42.708;23.310;2023-04-29T06:39:47;7.20;;;5.90;;
16450;SDS011;12243;42.708;23.310;2023-04-29T06:42:31;8.97;;;5.57;;
16450;SDS011;12243;42.708;23.310;2023-04-29T06:45:24;12.27;;;7.00;;
16450;SDS011;12243;42.708;23.310;2023-04-29T06:48:06;8.70;;;6.23;;
16450;SDS011;12243;42.708;23.310;2023-04-29T06:50:51;13.77;;;7.00;;
16450;SDS011;12243;42.708;23.310;2023-04-29T06:53:20;11.57;;;6.47;;
16450;SDS011;12243;42.708;23.310;2023-04-29T06:55:47;6.50;;;5.80;;
16450;SDS011;12243;42.708;23.310;2023-04-29T06:58:15;7.53;;;6.30;;
16450;SDS011;12243;42.708;23.310;2023-04-29T07:00:43;9.80;;;6.50;;
16450;SDS011;12243;42.708;23.310;2023-04-29T07:03:13;9.33;;;6.67;;
16450;SDS011;12243;42.708;23.310;2023-04-29T07:05:42;10.13;;;6.47;;
16450;SDS011;12243;42.708;23.310;2023-04-29T07:08:09;9.50;;;6.70;;
16450;SDS011;12243;42.708;23.310;2023-04-29T07:10:38;9.83;;;6.47;;
16450;SDS011;12243;42.708;23.310;2023-04-29T07:13:06;12.30;;;5.73;;
16450;SDS011;12243;42.708;23.310;2023-04-29T07:15:34;8.87;;;5.43;;
16450;SDS011;12243;42.708;23.310;2023-04-29T07:18:02;9.47;;;6.50;;
16450;SDS011;12243;42.708;23.310;2023-04-29T07:20:30;6.63;;;6.03;;
16450;SDS011;12243;42.708;23.310;2023-04-29T07:22:57;13.20;;;7.17;;
16450;SDS011;12243;42.708;23.310;2023-04-29T07:25:25;9.87;;;7.00;;
16450;SDS011;12243;42.708;23.310;2023-04-29T07:27:55;12.93;;;7.10;;
16450;SDS011;12243;42.708;23.310;2023-04-29T07:30:24;12.93;;;6.67;;
16450;SDS011;12243;42.708;23.310;2023-04-29T07:32:51;11.27;;;7.33;;
16450;SDS011;12243;42.708;23.310;2023-04-29T07:35:18;11.13;;;6.93;;
16450;SDS011;12243;42.708;23.310;2023-04-29T07:37:46;12.80;;;7.80;;
16450;SDS011;12243;42.708;23.310;2023-04-29T07:40:13;9.23;;;7.53;;
16450;SDS011;12243;42.708;23.310;2023-04-29T07:42:42;10.77;;;7.05;;
16450;SDS011;12243;42.708;23.310;2023-04-29T07:45:12;7.90;;;6.87;;
16450;SDS011;12243;42.708;23.310;2023-04-29T07:47:39;15.45;;;6.65;;
16450;SDS011;12243;42.708;23.310;2023-04-29T07:50:06;9.27;;;6.57;;
16450;SDS011;12243;42.708;23.310;2023-04-29T07:52:34;13.70;;;6.65;;
16450;SDS011;12243;42.708;23.310;2023-04-29T07:55:01;19.73;;;7.53;;
16450;SDS011;12243;42.708;23.310;2023-04-29T07:57:28;15.43;;;8.20;;
16450;SDS011;12243;42.708;23.310;2023-04-29T07:59:55;8.65;;;7.35;;
16450;SDS011;12243;42.708;23.310;2023-04-29T08:02:24;10.82;;;6.35;;
16450;SDS011;12243;42.708;23.310;2023-04-29T08:04:51;13.05;;;7.45;;
16450;SDS011;12243;42.708;23.310;2023-04-29T08:07:18;27.23;;;14.32;;
16450;SDS011;12243;42.708;23.310;2023-04-29T08:09:47;8.82;;;7.57;;
16450;SDS011;12243;42.708;23.310;2023-04-29T08:12:14;10.45;;;6.40;;
16450;SDS011;12243;42.708;23.310;2023-04-29T08:14:41;6.45;;;5.63;;
16450;SDS011;12243;42.708;23.310;2023-04-29T08:17:08;8.38;;;5.22;;
16450;SDS011;12243;42.708;23.310;2023-04-29T08:19:37;6.45;;;5.13;;
16450;SDS011;12243;42.708;23.310;2023-04-29T08:22:04;6.28;;;4.90;;
16450;SDS011;12243;42.708;23.310;2023-04-29T08:24:31;6.88;;;4.68;;
16450;SDS011;12243;42.708;23.310;2023-04-29T08:26:59;5.60;;;4.75;;
16450;SDS011;12243;42.708;23.310;2023-04-29T08:29:26;7.95;;;4.78;;
16450;SDS011;12243;42.708;23.310;2023-04-29T08:31:53;4.97;;;4.15;;
16450;SDS011;12243;42.708;23.310;2023-04-29T08:34:20;5.25;;;4.78;;
16450;SDS011;12243;42.708;23.310;2023-04-29T08:36:48;5.75;;;5.20;;
16450;SDS011;12243;42.708;23.310;2023-04-29T08:39:15;10.63;;;5.45;;
16450;SDS011;12243;42.708;23.310;2023-04-29T08:41:42;7.63;;;5.05;;
16450;SDS011;12243;42.708;23.310;2023-04-29T08:44:13;6.65;;;5.38;;
16450;SDS011;12243;42.708;23.310;2023-04-29T08:46:41;8.48;;;5.70;;
16450;SDS011;12243;42.708;23.310;2023-04-29T08:49:09;8.00;;;5.18;;
16450;SDS011;12243;42.708;23.310;2023-04-29T08:51:38;9.13;;;5.45;;
16450;SDS011;12243;42.708;23.310;2023-04-29T08:54:07;12.38;;;5.47;;
16450;SDS011;12243;42.708;23.310;2023-04-29T08:56:33;5.55;;;4.85;;
16450;SDS011;12243;42.708;23.310;2023-04-29T08:59:02;11.10;;;4.93;;
16450;SDS011;12243;42.708;23.310;2023-04-29T09:01:30;8.32;;;5.32;;
16450;SDS011;12243;42.708;23.310;2023-04-29T09:04:03;10.30;;;5.30;;
16450;SDS011;12243;42.708;23.310;2023-04-29T09:06:35;5.95;;;4.93;;
16450;SDS011;12243;42.708;23.310;2023-04-29T09:09:02;12.27;;;5.20;;
16450;SDS011;12243;42.708;23.310;2023-04-29T09:11:31;10.55;;;5.70;;
16450;SDS011;12243;42.708;23.310;2023-04-29T09:14:00;7.57;;;6.28;;
16450;SDS011;12243;42.708;23.310;2023-04-29T09:16:28;6.03;;;5.45;;
16450;SDS011;12243;42.708;23.310;2023-04-29T09:18:55;5.40;;;4.45;;
16450;SDS011;12243;42.708;23.310;2023-04-29T09:21:22;12.18;;;5.35;;
16450;SDS011;12243;42.708;23.310;2023-04-29T09:23:51;8.88;;;5.10;;
16450;SDS011;12243;42.708;23.310;2023-04-29T09:26:19;6.78;;;4.93;;
16450;SDS011;12243;42.708;23.310;2023-04-29T09:28:48;8.02;;;5.57;;
16450;SDS011;12243;42.708;23.310;2023-04-29T09:31:31;12.93;;;5.88;;
16450;SDS011;12243;42.708;23.310;2023-04-29T09:33:58;6.88;;;5.32;;
16450;SDS011;12243;42.708;23.310;2023-04-29T09:36:38;8.05;;;5.25;;
16450;SDS011;12243;42.708;23.310;2023-04-29T09:39:07;9.13;;;5.65;;
16450;SDS011;12243;42.708;23.310;2023-04-29T09:41:37;10.75;;;5.88;;
16450;SDS011;12243;42.708;23.310;2023-04-29T09:44:07;7.78;;;5.57;;
16450;SDS011;12243;42.708;23.310;2023-04-29T09:46:35;11.73;;;5.32;;
16450;SDS011;12243;42.708;23.310;2023-04-29T09:49:20;6.72;;;4.97;;
16450;SDS011;12243;42.708;23.310;2023-04-29T09:51:52;8.38;;;5.55;;
16450;SDS011;12243;42.708;23.310;2023-04-29T09:54:20;5.93;;;5.22;;
16450;SDS011;12243;42.708;23.310;2023-04-29T09:56:48;7.90;;;4.57;;
16450;SDS011;12243;42.708;23.310;2023-04-29T09:59:17;4.80;;;4.38;;
16450;SDS011;12243;42.708;23.310;2023-04-29T10:01:45;5.32;;;4.53;;
16450;SDS011;12243;42.708;23.310;2023-04-29T10:04:15;7.30;;;4.50;;
16450;SDS011;12243;42.708;23.310;2023-04-29T10:06:43;9.80;;;4.72;;
16450;SDS011;12243;42.708;23.310;2023-04-29T10:09:12;7.15;;;4.70;;
16450;SDS011;12243;42.708;23.310;2023-04-29T10:11:41;6.80;;;5.05;;
16450;SDS011;12243;42.708;23.310;2023-04-29T10:14:09;6.95;;;4.68;;
16450;SDS011;12243;42.708;23.310;2023-04-29T10:16:42;7.82;;;4.75;;
16450;SDS011;12243;42.708;23.310;2023-04-29T10:19:14;6.05;;;4.43;;
16450;SDS011;12243;42.708;23.310;2023-04-29T10:21:46;5.97;;;4.35;;
16450;SDS011;12243;42.708;23.310;2023-04-29T10:24:15;6.53;;;4.55;;
16450;SDS011;12243;42.708;23.310;2023-04-29T10:26:43;7.90;;;4.30;;
16450;SDS011;12243;42.708;23.310;2023-04-29T10:29:10;5.28;;;4.10;;
16450;SDS011;12243;42.708;23.310;2023-04-29T10:31:42;4.30;;;3.90;;
16450;SDS011;12243;42.708;23.310;2023-04-29T10:34:10;7.15;;;3.80;;
16450;SDS011;12243;42.708;23.310;2023-04-29T10:36:39;7.85;;;3.80;;
16450;SDS011;12243;42.708;23.310;2023-04-29T10:39:08;3.70;;;3.33;;
16450;SDS011;12243;42.708;23.310;2023-04-29T10:41:43;8.57;;;3.65;;
16450;SDS011;12243;42.708;23.310;2023-04-29T10:44:11;4.63;;;3.53;;
16450;SDS011;12243;42.708;23.310;2023-04-29T10:46:38;5.10;;;3.65;;
16450;SDS011;12243;42.708;23.310;2023-04-29T10:49:06;5.13;;;3.72;;
16450;SDS011;12243;42.708;23.310;2023-04-29T10:51:38;5.65;;;4.30;;
16450;SDS011;12243;42.708;23.310;2023-04-29T10:54:06;4.80;;;3.58;;
16450;SDS011;12243;42.708;23.310;2023-04-29T10:56:35;6.00;;;2.88;;
16450;SDS011;12243;42.708;23.310;2023-04-29T10:59:03;6.38;;;3.35;;
16450;SDS011;12243;42.708;23.310;2023-04-29T11:01:41;6.72;;;3.55;;
16450;SDS011;12243;42.708;23.310;2023-04-29T11:04:19;3.80;;;3.15;;
16450;SDS011;12243;42.708;23.310;2023-04-29T11:06:47;4.57;;;3.28;;
16450;SDS011;12243;42.708;23.310;2023-04-29T11:09:18;5.70;;;3.22;;
16450;SDS011;12243;42.708;23.310;2023-04-29T11:11:47;3.15;;;2.85;;
16450;SDS011;12243;42.708;23.310;2023-04-29T11:14:23;4.47;;;3.13;;
16450;SDS011;12243;42.708;23.310;2023-04-29T11:16:51;7.05;;;3.22;;
16450;SDS011;12243;42.708;23.310;2023-04-29T11:19:22;3.72;;;3.35;;
16450;SDS011;12243;42.708;23.310;2023-04-29T11:21:53;9.77;;;3.05;;
16450;SDS011;12243;42.708;23.310;2023-04-29T11:24:47;6.35;;;2.60;;
16450;SDS011;12243;42.708;23.310;2023-04-29T11:27:14;4.50;;;2.92;;
16450;SDS011;12243;42.708;23.310;2023-04-29T11:29:44;5.72;;;3.65;;
16450;SDS011;12243;42.708;23.310;2023-04-29T11:32:11;4.65;;;2.30;;
16450;SDS011;12243;42.708;23.310;2023-04-29T11:34:40;3.67;;;2.58;;
16450;SDS011;12243;42.708;23.310;2023-04-29T11:37:07;2.40;;;2.20;;
16450;SDS011;12243;42.708;23.310;2023-04-29T11:39:34;3.22;;;2.20;;
16450;SDS011;12243;42.708;23.310;2023-04-29T11:42:02;2.33;;;2.22;;
16450;SDS011;12243;42.708;23.310;2023-04-29T11:44:29;3.67;;;2.00;;
16450;SDS011;12243;42.708;23.310;2023-04-29T11:47:00;3.05;;;2.00;;
16450;SDS011;12243;42.708;23.310;2023-04-29T11:49:28;2.47;;;2.20;;
16450;SDS011;12243;42.708;23.310;2023-04-29T11:51:58;4.57;;;2.40;;
16450;SDS011;12243;42.708;23.310;2023-04-29T11:54:25;2.03;;;1.92;;
16450;SDS011;12243;42.708;23.310;2023-04-29T11:56:53;2.28;;;1.90;;
16450;SDS011;12243;42.708;23.310;2023-04-29T11:59:20;2.78;;;2.08;;
16450;SDS011;12243;42.708;23.310;2023-04-29T12:01:47;3.33;;;2.10;;
16450;SDS011;12243;42.708;23.310;2023-04-29T12:04:15;2.67;;;2.47;;
16450;SDS011;12243;42.708;23.310;2023-04-29T12:06:42;3.35;;;2.33;;
16450;SDS011;12243;42.708;23.310;2023-04-29T12:09:10;2.80;;;2.60;;
16450;SDS011;12243;42.708;23.310;2023-04-29T12:11:39;3.65;;;2.63;;
16450;SDS011;12243;42.708;23.310;2023-04-29T12:14:06;2.20;;;2.10;;
16450;SDS011;12243;42.708;23.310;2023-04-29T12:16:33;2.80;;;2.40;;
16450;SDS011;12243;42.708;23.310;2023-04-29T12:19:01;4.85;;;2.40;;
16450;SDS011;12243;42.708;23.310;2023-04-29T12:21:28;2.78;;;2.40;;
16450;SDS011;12243;42.708;23.310;2023-04-29T12:23:57;2.72;;;1.98;;
16450;SDS011;12243;42.708;23.310;2023-04-29T12:26:27;2.33;;;1.88;;
16450;SDS011;12243;42.708;23.310;2023-04-29T12:28:57;2.15;;;2.00;;
16450;SDS011;12243;42.708;23.310;2023-04-29T12:31:31;2.90;;;2.13;;
16450;SDS011;12243;42.708;23.310;2023-04-29T12:33:59;2.60;;;2.10;;
16450;SDS011;12243;42.708;23.310;2023-04-29T12:36:27;4.55;;;2.25;;
16450;SDS011;12243;42.708;23.310;2023-04-29T12:38:54;3.92;;;2.20;;
16450;SDS011;12243;42.708;23.310;2023-04-29T12:41:36;3.88;;;2.03;;
16450;SDS011;12243;42.708;23.310;2023-04-29T12:44:04;2.35;;;2.15;;
16450;SDS011;12243;42.708;23.310;2023-04-29T12:46:35;2.20;;;1.98;;
16450;SDS011;12243;42.708;23.310;2023-04-29T12:49:03;3.08;;;2.78;;
16450;SDS011;12243;42.708;23.310;2023-04-29T12:51:30;3.58;;;2.10;;
16450;SDS011;12243;42.708;23.310;2023-04-29T12:53:58;3.67;;;2.30;;
16450;SDS011;12243;42.708;23.310;2023-04-29T12:56:25;2.30;;;1.92;;
16450;SDS011;12243;42.708;23.310;2023-04-29T12:58:54;2.20;;;2.10;;
16450;SDS011;12243;42.708;23.310;2023-04-29T13:01:21;3.00;;;2.50;;
16450;SDS011;12243;42.708;23.310;2023-04-29T13:03:48;2.40;;;2.30;;
16450;SDS011;12243;42.708;23.310;2023-04-29T13:06:15;2.00;;;1.77;;
16450;SDS011;12243;42.708;23.310;2023-04-29T13:08:43;2.42;;;1.85;;
16450;SDS011;12243;42.708;23.310;2023-04-29T13:11:10;3.90;;;2.20;;
16450;SDS011;12243;42.708;23.310;2023-04-29T13:13:37;2.33;;;2.20;;
16450;SDS011;12243;42.708;23.310;2023-04-29T13:16:06;2.30;;;2.05;;
16450;SDS011;12243;42.708;23.310;2023-04-29T13:18:33;4.55;;;2.63;;
16450;SDS011;12243;42.708;23.310;2023-04-29T13:21:01;4.30;;;2.35;;
16450;SDS011;12243;42.708;23.310;2023-04-29T13:23:28;5.90;;;2.38;;
16450;SDS011;12243;42.708;23.310;2023-04-29T13:25:55;3.65;;;2.30;;
16450;SDS011;12243;42.708;23.310;2023-04-29T13:28:21;2.35;;;2.15;;
16450;SDS011;12243;42.708;23.310;2023-04-29T13:30:48;3.60;;;2.08;;
16450;SDS011;12243;42.708;23.310;2023-04-29T13:33:18;4.63;;;2.28;;
16450;SDS011;12243;42.708;23.310;2023-04-29T13:35:45;1.67;;;1.67;;
16450;SDS011;12243;42.708;23.310;2023-04-29T13:38:13;2.47;;;1.70;;
16450;SDS011;12243;42.708;23.310;2023-04-29T13:40:41;1.80;;;1.70;;
16450;SDS011;12243;42.708;23.310;2023-04-29T13:43:08;1.70;;;1.60;;
16450;SDS011;12243;42.708;23.310;2023-04-29T13:45:35;2.88;;;2.03;;
16450;SDS011;12243;42.708;23.310;2023-04-29T13:48:02;2.63;;;2.17;;
16450;SDS011;12243;42.708;23.310;2023-04-29T13:50:31;2.20;;;1.98;;
16450;SDS011;12243;42.708;23.310;2023-04-29T13:52:58;1.52;;;1.50;;
16450;SDS011;12243;42.708;23.310;2023-04-29T13:55:25;1.58;;;1.48;;
16450;SDS011;12243;42.708;23.310;2023-04-29T13:57:52;2.15;;;2.00;;
16450;SDS011;12243;42.708;23.310;2023-04-29T14:00:20;1.90;;;1.80;;
16450;SDS011;12243;42.708;23.310;2023-04-29T14:02:46;2.00;;;1.90;;
16450;SDS011;12243;42.708;23.310;2023-04-29T14:05:13;1.85;;;1.70;;
16450;SDS011;12243;42.708;23.310;2023-04-29T14:07:42;1.70;;;1.60;;
16450;SDS011;12243;42.708;23.310;2023-04-29T14:10:09;2.05;;;1.90;;
16450;SDS011;12243;42.708;23.310;2023-04-29T14:12:36;3.28;;;2.10;;
16450;SDS011;12243;42.708;23.310;2023-04-29T14:15:03;2.25;;;1.80;;
16450;SDS011;12243;42.708;23.310;2023-04-29T14:17:30;2.15;;;2.05;;
16450;SDS011;12243;42.708;23.310;2023-04-29T14:19:57;3.47;;;1.73;;
16450;SDS011;12243;42.708;23.310;2023-04-29T14:22:24;2.17;;;1.90;;
16450;SDS011;12243;42.708;23.310;2023-04-29T14:24:53;2.67;;;1.77;;
16450;SDS011;12243;42.708;23.310;2023-04-29T14:27:20;2.08;;;1.70;;
16450;SDS011;12243;42.708;23.310;2023-04-29T14:29:47;1.88;;;1.77;;
16450;SDS011;12243;42.708;23.310;2023-04-29T14:32:14;2.45;;;1.85;;
16450;SDS011;12243;42.708;23.310;2023-04-29T14:34:41;2.70;;;2.00;;
16450;SDS011;12243;42.708;23.310;2023-04-29T14:37:07;3.33;;;2.90;;
16450;SDS011;12243;42.708;23.310;2023-04-29T14:39:34;4.05;;;2.63;;
16450;SDS011;12243;42.708;23.310;2023-04-29T14:42:03;2.42;;;2.20;;
16450;SDS011;12243;42.708;23.310;2023-04-29T14:44:30;5.07;;;3.13;;